Time;durP1;ratioP1;P1;durP2;ratioP2;P2;SDS_P1;SDS_P2;PMS_P1;PMS_P2;Temp;Humidity;BMP_temperature;BMP_pressure;BME280_temperature;BME280_humidity;BME280_pressure;Samples;Min_cycle;Max_cycle;Signal;HPM_P1;HPM_P2
2021/07/31 00:00:12;;;;;;;;;;;;;;;;;;4986161;28;19942;-68
2021/07/31 00:02:39;;;;;;;;;;;;;;;;;;4984508;28;19926;-68
2021/07/31 00:05:08;;;;;;;;;;;;;;;;;;4982837;28;20752;-68
2021/07/31 00:07:35;;;;;;;;;;;;;;;;;;4985304;28;20334;-69
2021/07/31 00:10:02;;;;;;;;;;;;;;;;;;4986111;28;19929;-67
2021/07/31 00:12:29;;;;;;;;;;;;;;;;;;4983933;28;19933;-68
2021/07/31 00:14:56;;;;;;;;;;;;;;;;;;4985446;28;20013;-67
2021/07/31 00:17:23;;;;;;;;;;;;;;;;;;4986833;28;20378;-66
2021/07/31 00:19:50;;;;;;;;;;;;;;;;;;4982289;28;19926;-68
2021/07/31 00:22:17;;;;;;;;;;;;;;;;;;4981614;28;19926;-68
2021/07/31 00:24:44;;;;;;;;;;;;;;;;;;4980772;28;19933;-67
2021/07/31 00:27:11;;;;;;;;;;;;;;;;;;4979619;28;19936;-68
2021/07/31 00:29:38;;;;;;;;;;;;;;;;;;4983292;28;20403;-65
2021/07/31 00:32:05;;;;;;;;;;;;;;;;;;4977747;28;19926;-67
2021/07/31 00:34:32;;;;;;;;;;;;;;;;;;4978807;28;19936;-68
2021/07/31 00:36:59;;;;;;;;;;;;;;;;;;4985608;28;20313;-67
2021/07/31 00:39:26;;;;;;;;;;;;;;;;;;4983883;28;19941;-68
2021/07/31 00:41:53;;;;;;;;;;;;;;;;;;4984346;28;20302;-67
2021/07/31 00:44:19;;;;;;;;;;;;;;;;;;4977556;28;19926;-67
2021/07/31 00:46:46;;;;;;;;;;;;;;;;;;4974732;28;19933;-67
2021/07/31 00:49:14;;;;;;;;;;;;;;;;;;4985482;28;19933;-67
2021/07/31 00:51:41;;;;;;;;;;;;;;;;;;4979479;28;19930;-66
2021/07/31 00:54:08;;;;;;;;;;;;;;;;;;4979578;28;19934;-67
2021/07/31 00:56:35;;;;;;;;;;;;;;;;;;4987737;28;19938;-67
2021/07/31 00:59:02;;;;;;;;;;;;;;;;;;4984465;28;20285;-65
2021/07/31 01:01:29;;;;;;;;;;;;;;;;;;4983474;28;19969;-66
2021/07/31 01:03:56;;;;;;;;;;;;;;;;;;4980322;28;19926;-69
2021/07/31 01:06:23;;;;;;;;;;;;;;;;;;4981987;28;20294;-67
2021/07/31 01:08:50;;;;;;;;;;;;;;;;;;4989952;28;19940;-68
2021/07/31 01:11:17;;;;;;;;;;;;;;;;;;4984655;28;19927;-68
2021/07/31 01:13:44;;;;;;;;;;;;;;;;;;4980168;28;19933;-68
2021/07/31 01:16:11;;;;;;;;;;;;;;;;;;4985401;28;19926;-68
2021/07/31 01:18:38;;;;;;;;;;;;;;;;;;4982319;28;19926;-67
2021/07/31 01:21:05;;;;;;;;;;;;;;;;;;4983911;28;20313;-67
2021/07/31 01:23:31;;;;;;;;;;;;;;;;;;4980025;28;20002;-67
2021/07/31 01:25:58;;;;;;;;;;;;;;;;;;4987167;28;19932;-69
2021/07/31 01:28:25;;;;;;;;;;;;;;;;;;4988939;28;19933;-67
2021/07/31 01:30:52;;;;;;;;;;;;;;;;;;4981682;28;19925;-68
2021/07/31 01:33:19;;;;;;;;;;;;;;;;;;4982112;28;20322;-68
2021/07/31 01:35:46;;;;;;;;;;;;;;;;;;4982379;28;19933;-67
2021/07/31 01:38:13;;;;;;;;;;;;;;;;;;4976190;28;19933;-71
2021/07/31 01:40:40;;;;;;;;;;;;;;;;;;4985834;28;20302;-67
2021/07/31 01:43:09;;;;;;;;;;;;;;;;;;4985917;28;19930;-67
2021/07/31 01:45:36;;;;;;;;;;;;;;;;;;4981858;28;19941;-67
2021/07/31 01:48:03;;;;;;;;;;;;;;;;;;4985002;28;19926;-67
2021/07/31 01:50:30;;;;;;;;;;;;;;;;;;4983473;28;19930;-67
2021/07/31 01:52:57;;;;;;;;;;;;;;;;;;4981643;28;19926;-69
2021/07/31 01:55:24;;;;;;;;;;;;;;;;;;4977461;28;19926;-66
2021/07/31 01:57:51;;;;;;;;;;;;;;;;;;4980653;28;19933;-68
2021/07/31 02:00:18;;;;;;;;;;;;;;;;;;4981707;28;19933;-67
2021/07/31 02:02:45;;;;;;;;;;;;;;;;;;4985852;28;20279;-68
2021/07/31 02:05:12;;;;;;;;;;;;;;;;;;4988057;28;19932;-68
2021/07/31 02:07:39;;;;;;;;;;;;;;;;;;4981308;28;19945;-67
2021/07/31 02:10:05;;;;;;;;;;;;;;;;;;4982072;28;20294;-68
2021/07/31 02:12:32;;;;;;;;;;;;;;;;;;4984406;28;19925;-67
2021/07/31 02:14:59;;;;;;;;;;;;;;;;;;4987730;28;19926;-68
2021/07/31 02:17:26;;;;;;;;;;;;;;;;;;4990398;28;20404;-68
2021/07/31 02:19:53;;;;;;;;;;;;;;;;;;4981624;28;19933;-68
2021/07/31 02:22:20;;;;;;;;;;;;;;;;;;4988819;28;19949;-67
2021/07/31 02:24:47;;;;;;;;;;;;;;;;;;4990492;28;20367;-68
2021/07/31 02:27:14;;;;;;;;;;;;;;;;;;4985081;28;19957;-68
2021/07/31 02:29:41;;;;;;;;;;;;;;;;;;4983966;28;20398;-68
2021/07/31 02:32:08;;;;;;;;;;;;;;;;;;4980699;28;19926;-68
2021/07/31 02:34:35;;;;;;;;;;;;;;;;;;4982058;28;19925;-68
2021/07/31 02:37:02;;;;;;;;;;;;;;;;;;4985957;28;20409;-68
2021/07/31 02:39:29;;;;;;;;;;;;;;;;;;4985616;28;20296;-68
2021/07/31 02:41:56;;;;;;;;;;;;;;;;;;4986186;28;19933;-67
2021/07/31 02:44:23;;;;;;;;;;;;;;;;;;4986407;28;19926;-67
2021/07/31 02:46:50;;;;;;;;;;;;;;;;;;4984922;28;19926;-67
2021/07/31 02:49:17;;;;;;;;;;;;;;;;;;4986570;28;20325;-68
2021/07/31 02:51:44;;;;;;;;;;;;;;;;;;4986746;28;19940;-67
2021/07/31 02:54:11;;;;;;;;;;;;;;;;;;4987839;28;20017;-67
2021/07/31 02:56:38;;;;;;;;;;;;;;;;;;4985476;28;19932;-70
2021/07/31 02:59:05;;;;;;;;;;;;;;;;;;4990775;28;19926;-65
2021/07/31 03:01:34;;;;;;;;;;;;;;;;;;4987725;28;19953;-69
2021/07/31 03:04:01;;;;;;;;;;;;;;;;;;4984526;28;19930;-71
2021/07/31 03:06:28;;;;;;;;;;;;;;;;;;4987705;28;19932;-68
2021/07/31 03:08:55;;;;;;;;;;;;;;;;;;4982507;28;20306;-66
2021/07/31 03:11:23;;;;;;;;;;;;;;;;;;4985511;28;19929;-67
2021/07/31 03:13:50;;;;;;;;;;;;;;;;;;4979058;28;20468;-67
2021/07/31 03:16:17;;;;;;;;;;;;;;;;;;4989131;28;19926;-69
2021/07/31 03:18:43;;;;;;;;;;;;;;;;;;4985631;28;19926;-69
2021/07/31 03:21:11;;;;;;;;;;;;;;;;;;4985874;28;19926;-67
2021/07/31 03:23:38;;;;;;;;;;;;;;;;;;4986447;28;19954;-69
2021/07/31 03:26:05;;;;;;;;;;;;;;;;;;4986005;28;20409;-69
2021/07/31 03:28:32;;;;;;;;;;;;;;;;;;4981699;28;20386;-68
2021/07/31 03:30:59;;;;;;;;;;;;;;;;;;4987264;28;19949;-67
2021/07/31 03:33:26;;;;;;;;;;;;;;;;;;4978983;28;19932;-66
2021/07/31 03:35:53;;;;;;;;;;;;;;;;;;4986129;28;19933;-67
2021/07/31 03:38:20;;;;;;;;;;;;;;;;;;4987247;28;19932;-67
2021/07/31 03:40:47;;;;;;;;;;;;;;;;;;4981606;28;20275;-66
2021/07/31 03:43:14;;;;;;;;;;;;;;;;;;4982022;28;19927;-66
2021/07/31 03:45:41;;;;;;;;;;;;;;;;;;4984545;28;19927;-68
2021/07/31 03:48:08;;;;;;;;;;;;;;;;;;4990467;28;19926;-66
2021/07/31 03:50:35;;;;;;;;;;;;;;;;;;4982649;28;19926;-67
2021/07/31 03:53:02;;;;;;;;;;;;;;;;;;4984489;28;19934;-67
2021/07/31 03:55:29;;;;;;;;;;;;;;;;;;4984211;28;19926;-66
2021/07/31 03:57:56;;;;;;;;;;;;;;;;;;4982630;28;20305;-66
2021/07/31 04:00:23;;;;;;;;;;;;;;;;;;4984584;28;19925;-66
2021/07/31 04:02:50;;;;;;;;;;;;;;;;;;4987782;28;20024;-67
2021/07/31 04:05:16;;;;;;;;;;;;;;;;;;4989481;28;19936;-67
2021/07/31 04:07:43;;;;;;;;;;;;;;;;;;4982607;28;19938;-66
2021/07/31 04:10:10;;;;;;;;;;;;;;;;;;4983505;28;19930;-67
2021/07/31 04:12:37;;;;;;;;;;;;;;;;;;4984377;28;20414;-67
2021/07/31 04:15:04;;;;;;;;;;;;;;;;;;4977379;28;19933;-66
2021/07/31 04:17:31;;;;;;;;;;;;;;;;;;4981644;28;19930;-66
2021/07/31 04:19:58;;;;;;;;;;;;;;;;;;4979253;28;20386;-67
2021/07/31 04:22:25;;;;;;;;;;;;;;;;;;4978920;28;19926;-67
2021/07/31 04:24:52;;;;;;;;;;;;;;;;;;4979878;28;19940;-68
2021/07/31 04:27:19;;;;;;;;;;;;;;;;;;4983011;28;19933;-67
2021/07/31 04:29:46;;;;;;;;;;;;;;;;;;4979886;28;19926;-67
2021/07/31 04:32:13;;;;;;;;;;;;;;;;;;4990067;28;20052;-67
2021/07/31 04:34:40;;;;;;;;;;;;;;;;;;4974491;28;20002;-67
2021/07/31 04:37:07;;;;;;;;;;;;;;;;;;4981943;28;20009;-67
2021/07/31 04:39:34;;;;;;;;;;;;;;;;;;4983710;28;19932;-67
2021/07/31 04:42:01;;;;;;;;;;;;;;;;;;4985325;28;19926;-67
2021/07/31 04:44:28;;;;;;;;;;;;;;;;;;4984687;28;19973;-67
2021/07/31 04:46:55;;;;;;;;;;;;;;;;;;4981247;28;19930;-68
2021/07/31 04:49:22;;;;;;;;;;;;;;;;;;4986745;28;20129;-67
2021/07/31 04:51:49;;;;;;;;;;;;;;;;;;4980249;28;20446;-67
2021/07/31 04:54:16;;;;;;;;;;;;;;;;;;4983514;28;20297;-66
2021/07/31 04:56:43;;;;;;;;;;;;;;;;;;4982002;28;19944;-67
2021/07/31 04:59:10;;;;;;;;;;;;;;;;;;4979730;28;20297;-67
2021/07/31 05:01:37;;;;;;;;;;;;;;;;;;4986869;28;19926;-67
2021/07/31 05:04:03;;;;;;;;;;;;;;;;;;4982904;28;19944;-67
2021/07/31 05:06:30;;;;;;;;;;;;;;;;;;4981506;28;19926;-64
2021/07/31 05:08:57;;;;;;;;;;;;;;;;;;4978912;28;19973;-65
2021/07/31 05:11:24;;;;;;;;;;;;;;;;;;4982308;28;19926;-63
2021/07/31 05:13:51;;;;;;;;;;;;;;;;;;4981100;28;19926;-63
2021/07/31 05:16:18;;;;;;;;;;;;;;;;;;4975780;28;19925;-64
2021/07/31 05:18:45;;;;;;;;;;;;;;;;;;4980599;28;19933;-63
2021/07/31 05:21:12;;;;;;;;;;;;;;;;;;4988122;28;19926;-63
2021/07/31 05:23:39;;;;;;;;;;;;;;;;;;4985002;28;20412;-63
2021/07/31 05:26:06;;;;;;;;;;;;;;;;;;4983650;28;20322;-63
2021/07/31 05:28:33;;;;;;;;;;;;;;;;;;4979424;28;19937;-64
2021/07/31 05:31:00;;;;;;;;;;;;;;;;;;4982280;28;19926;-63
2021/07/31 05:33:27;;;;;;;;;;;;;;;;;;4984523;28;20021;-65
2021/07/31 05:35:54;;;;;;;;;;;;;;;;;;4987739;28;20390;-64
2021/07/31 05:38:21;;;;;;;;;;;;;;;;;;4982265;28;19926;-63
2021/07/31 05:40:47;;;;;;;;;;;;;;;;;;4983643;28;19926;-64
2021/07/31 05:43:14;;;;;;;;;;;;;;;;;;4980758;28;19925;-65
2021/07/31 05:45:41;;;;;;;;;;;;;;;;;;4986652;28;20386;-65
2021/07/31 05:48:08;;;;;;;;;;;;;;;;;;4982765;28;19926;-65
2021/07/31 05:50:37;;;;;;;;;;;;;;;;;;4984256;28;19933;-65
2021/07/31 05:53:04;;;;;;;;;;;;;;;;;;4984620;28;19926;-66
2021/07/31 05:55:31;;;;;;;;;;;;;;;;;;4991715;28;19940;-65
2021/07/31 05:57:58;;;;;;;;;;;;;;;;;;4987450;28;19930;-65
2021/07/31 06:00:25;;;;;;;;;;;;;;;;;;4981862;28;19926;-66
2021/07/31 06:02:52;;;;;;;;;;;;;;;;;;4985796;28;19925;-68
2021/07/31 06:05:19;;;;;;;;;;;;;;;;;;4987965;28;19933;-66
2021/07/31 06:07:46;;;;;;;;;;;;;;;;;;4990656;28;19933;-66
2021/07/31 06:10:13;;;;;;;;;;;;;;;;;;4979573;28;20322;-67
2021/07/31 06:12:40;;;;;;;;;;;;;;;;;;4983945;28;19926;-66
2021/07/31 06:15:07;;;;;;;;;;;;;;;;;;4986231;28;19930;-66
2021/07/31 06:17:34;;;;;;;;;;;;;;;;;;4984883;28;20409;-66
2021/07/31 06:20:01;;;;;;;;;;;;;;;;;;4985461;28;20043;-66
2021/07/31 06:22:28;;;;;;;;;;;;;;;;;;4977145;28;19926;-66
2021/07/31 06:24:55;;;;;;;;;;;;;;;;;;4982033;28;19926;-66
2021/07/31 06:27:22;;;;;;;;;;;;;;;;;;4989515;28;19930;-66
2021/07/31 06:29:49;;;;;;;;;;;;;;;;;;4978669;28;19933;-66
2021/07/31 06:32:16;;;;;;;;;;;;;;;;;;4986536;28;19945;-66
2021/07/31 06:34:43;;;;;;;;;;;;;;;;;;4978540;28;19926;-66
2021/07/31 06:37:10;;;;;;;;;;;;;;;;;;4981880;28;20291;-66
2021/07/31 06:39:37;;;;;;;;;;;;;;;;;;4985317;28;19933;-66
2021/07/31 06:42:04;;;;;;;;;;;;;;;;;;4979691;28;19930;-66
2021/07/31 06:44:30;;;;;;;;;;;;;;;;;;4987635;28;19926;-66
2021/07/31 06:46:57;;;;;;;;;;;;;;;;;;4986212;28;19933;-66
2021/07/31 06:49:24;;;;;;;;;;;;;;;;;;4984902;28;19934;-66
2021/07/31 06:51:52;;;;;;;;;;;;;;;;;;4985287;28;19930;-66
2021/07/31 06:54:20;;;;;;;;;;;;;;;;;;4979054;28;19960;-66
2021/07/31 06:56:47;;;;;;;;;;;;;;;;;;4982815;28;19926;-66
2021/07/31 06:59:14;;;;;;;;;;;;;;;;;;4985380;28;19937;-66
2021/07/31 07:01:40;;;;;;;;;;;;;;;;;;4988970;28;19932;-67
2021/07/31 07:04:07;;;;;;;;;;;;;;;;;;4985926;28;19926;-67
2021/07/31 07:06:34;;;;;;;;;;;;;;;;;;4985405;28;19926;-67
2021/07/31 07:09:01;;;;;;;;;;;;;;;;;;4984342;28;19934;-67
2021/07/31 07:11:28;;;;;;;;;;;;;;;;;;4983915;28;20283;-67
2021/07/31 07:13:55;;;;;;;;;;;;;;;;;;4988880;28;19926;-66
2021/07/31 07:16:22;;;;;;;;;;;;;;;;;;4983035;28;20025;-66
2021/07/31 07:18:49;;;;;;;;;;;;;;;;;;4984679;28;19934;-67
2021/07/31 07:21:16;;;;;;;;;;;;;;;;;;4980738;28;20294;-66
2021/07/31 07:23:43;;;;;;;;;;;;;;;;;;4981713;28;19932;-66
2021/07/31 07:26:10;;;;;;;;;;;;;;;;;;4983117;28;19929;-67
2021/07/31 07:28:37;;;;;;;;;;;;;;;;;;4979559;28;19926;-69
2021/07/31 07:31:05;;;;;;;;;;;;;;;;;;4981946;28;20398;-67
2021/07/31 07:33:32;;;;;;;;;;;;;;;;;;4982805;28;19926;-67
2021/07/31 07:35:59;;;;;;;;;;;;;;;;;;4984942;28;19926;-68
2021/07/31 07:38:26;;;;;;;;;;;;;;;;;;4983085;28;19932;-67
2021/07/31 07:40:53;;;;;;;;;;;;;;;;;;4982292;28;20417;-67
2021/07/31 07:43:20;;;;;;;;;;;;;;;;;;4981173;28;19925;-67
2021/07/31 07:45:47;;;;;;;;;;;;;;;;;;4979998;28;19934;-67
2021/07/31 07:48:14;;;;;;;;;;;;;;;;;;4985569;28;19933;-67
2021/07/31 07:50:41;;;;;;;;;;;;;;;;;;4983915;28;19936;-67
2021/07/31 07:53:08;;;;;;;;;;;;;;;;;;4985866;28;19926;-67
2021/07/31 07:55:35;;;;;;;;;;;;;;;;;;4982976;28;19926;-67
2021/07/31 07:58:02;;;;;;;;;;;;;;;;;;4988994;28;20036;-67
2021/07/31 08:00:29;;;;;;;;;;;;;;;;;;4983051;28;19926;-67
2021/07/31 08:02:56;;;;;;;;;;;;;;;;;;4978235;28;19926;-67
2021/07/31 08:05:23;;;;;;;;;;;;;;;;;;4982742;28;19926;-67
2021/07/31 08:07:50;;;;;;;;;;;;;;;;;;4986025;28;20514;-67
2021/07/31 08:10:17;;;;;;;;;;;;;;;;;;4977526;28;19949;-66
2021/07/31 08:12:44;;;;;;;;;;;;;;;;;;4979673;28;19940;-66
2021/07/31 08:15:11;;;;;;;;;;;;;;;;;;4981492;28;19926;-66
2021/07/31 08:17:38;;;;;;;;;;;;;;;;;;4986078;28;20362;-64
2021/07/31 08:20:05;;;;;;;;;;;;;;;;;;4983974;28;19926;-65
2021/07/31 08:22:32;;;;;;;;;;;;;;;;;;4979509;28;20386;-66
2021/07/31 08:24:59;;;;;;;;;;;;;;;;;;4979430;28;19936;-67
2021/07/31 08:27:26;;;;;;;;;;;;;;;;;;4981923;28;19930;-66
2021/07/31 08:29:53;;;;;;;;;;;;;;;;;;4982023;28;19932;-66
2021/07/31 08:32:20;;;;;;;;;;;;;;;;;;4982847;28;19933;-66
2021/07/31 08:34:47;;;;;;;;;;;;;;;;;;4976253;28;20297;-65
2021/07/31 08:37:14;;;;;;;;;;;;;;;;;;4982483;28;19953;-66
2021/07/31 08:39:41;;;;;;;;;;;;;;;;;;4987352;28;20438;-65
2021/07/31 08:42:08;;;;;;;;;;;;;;;;;;4981195;28;20302;-67
2021/07/31 08:44:35;;;;;;;;;;;;;;;;;;4988480;28;20383;-67
2021/07/31 08:47:02;;;;;;;;;;;;;;;;;;4990407;28;19940;-66
2021/07/31 08:49:29;;;;;;;;;;;;;;;;;;4975146;28;19934;-66
2021/07/31 08:51:56;;;;;;;;;;;;;;;;;;4981098;28;19926;-68
2021/07/31 08:54:23;;;;;;;;;;;;;;;;;;4980527;28;20205;-66
2021/07/31 08:56:50;;;;;;;;;;;;;;;;;;4981758;28;19934;-68
2021/07/31 08:59:17;;;;;;;;;;;;;;;;;;4982104;28;19926;-66
2021/07/31 09:01:44;;;;;;;;;;;;;;;;;;4986309;28;19931;-67
2021/07/31 09:04:11;;;;;;;;;;;;;;;;;;4988686;28;19930;-67
2021/07/31 09:06:38;;;;;;;;;;;;;;;;;;4988328;28;19925;-67
2021/07/31 09:09:05;;;;;;;;;;;;;;;;;;4982906;28;20020;-68
2021/07/31 09:11:33;;;;;;;;;;;;;;;;;;4980638;28;19925;-66
2021/07/31 09:14:00;;;;;;;;;;;;;;;;;;4987049;28;19926;-68
2021/07/31 09:16:27;;;;;;;;;;;;;;;;;;4983605;28;19925;-66
2021/07/31 09:18:54;;;;;;;;;;;;;;;;;;4984194;28;20468;-68
2021/07/31 09:21:21;;;;;;;;;;;;;;;;;;4983222;28;20285;-66
2021/07/31 09:23:48;;;;;;;;;;;;;;;;;;4979210;28;19932;-67
2021/07/31 09:26:15;;;;;;;;;;;;;;;;;;4989075;28;19934;-66
2021/07/31 09:28:42;;;;;;;;;;;;;;;;;;4983359;28;19936;-66
2021/07/31 09:31:09;;;;;;;;;;;;;;;;;;4982928;28;19934;-66
2021/07/31 09:33:36;;;;;;;;;;;;;;;;;;4978427;28;19926;-68
2021/07/31 09:36:03;;;;;;;;;;;;;;;;;;4982600;28;19934;-68
2021/07/31 09:38:30;;;;;;;;;;;;;;;;;;4986748;28;19932;-65
2021/07/31 09:40:57;;;;;;;;;;;;;;;;;;4957350;23;19927;-65
2021/07/31 09:43:25;;;;;;;;;;;;;;;;;;4933662;28;20449;-66
2021/07/31 09:45:52;;;;;;;;;;;;;;;;;;4927901;29;20402;-65
2021/07/31 09:48:19;;;;;;;;;;;;;;;;;;4924121;29;19927;-65
2021/07/31 09:50:47;;;;;;;;;;;;;;;;;;4924548;29;19931;-65
2021/07/31 09:53:14;;;;;;;;;;;;;;;;;;4926278;29;19927;-65
2021/07/31 09:55:41;;;;;;;;;;;;;;;;;;4924555;28;19930;-66
2021/07/31 09:58:08;;;;;;;;;;;;;;;;;;4924471;28;20411;-65
2021/07/31 10:00:35;;;;;;;;;;;;;;;;;;4929007;28;20034;-65
2021/07/31 10:03:02;;;;;;;;;;;;;;;;;;4926525;29;19953;-66
2021/07/31 10:05:29;;;;;;;;;;;;;;;;;;4930980;28;19926;-66
2021/07/31 10:07:56;;;;;;;;;;;;;;;;;;4931864;28;20004;-66
2021/07/31 10:10:23;;;;;;;;;;;;;;;;;;4926574;29;20387;-67
2021/07/31 10:12:50;;;;;;;;;;;;;;;;;;4927587;29;19935;-67
2021/07/31 10:15:17;;;;;;;;;;;;;;;;;;4926281;28;19931;-66
2021/07/31 10:17:44;;;;;;;;;;;;;;;;;;4926382;29;19927;-66
2021/07/31 10:20:11;;;;;;;;;;;;;;;;;;4927118;28;19965;-66
2021/07/31 10:22:38;;;;;;;;;;;;;;;;;;4930106;28;19928;-66
2021/07/31 10:25:05;;;;;;;;;;;;;;;;;;4927721;28;19933;-67
2021/07/31 10:27:33;;;;;;;;;;;;;;;;;;4928337;29;20319;-66
2021/07/31 10:30:00;;;;;;;;;;;;;;;;;;4924297;28;20376;-67
2021/07/31 10:32:30;;;;;;;;;;;;;;;;;;4925833;29;19935;-67
2021/07/31 10:34:57;;;;;;;;;;;;;;;;;;4927894;29;19930;-67
2021/07/31 10:37:24;;;;;;;;;;;;;;;;;;4927323;28;20481;-66
2021/07/31 10:39:51;;;;;;;;;;;;;;;;;;4930350;28;19927;-66
2021/07/31 10:42:18;;;;;;;;;;;;;;;;;;4926531;28;20037;-69
2021/07/31 10:44:45;;;;;;;;;;;;;;;;;;4926309;28;19927;-67
2021/07/31 10:47:12;;;;;;;;;;;;;;;;;;4931728;28;19957;-67
2021/07/31 10:49:39;;;;;;;;;;;;;;;;;;4931853;29;20463;-68
2021/07/31 10:52:06;;;;;;;;;;;;;;;;;;4937156;28;19929;-69
2021/07/31 10:54:33;;;;;;;;;;;;;;;;;;4931144;29;19927;-69
2021/07/31 10:57:00;;;;;;;;;;;;;;;;;;4957222;28;20383;-67
2021/07/31 10:59:27;;;;;;;;;;;;;;;;;;4932722;28;20369;-68
2021/07/31 11:01:54;;;;;;;;;;;;;;;;;;4933427;28;19970;-68
2021/07/31 11:04:21;;;;;;;;;;;;;;;;;;4933514;29;19926;-67
2021/07/31 11:06:48;;;;;;;;;;;;;;;;;;4933098;29;19938;-68
2021/07/31 11:09:15;;;;;;;;;;;;;;;;;;4950170;28;20284;-67
2021/07/31 11:11:42;;;;;;;;;;;;;;;;;;4932986;29;20021;-67
2021/07/31 11:14:09;;;;;;;;;;;;;;;;;;4931636;29;19934;-67
2021/07/31 11:16:36;;;;;;;;;;;;;;;;;;4933006;28;19931;-66
2021/07/31 11:19:03;;;;;;;;;;;;;;;;;;4933211;29;19938;-68
2021/07/31 11:21:30;;;;;;;;;;;;;;;;;;4932212;29;20682;-67
2021/07/31 11:23:57;;;;;;;;;;;;;;;;;;4933790;29;20387;-67
2021/07/31 11:26:24;;;;;;;;;;;;;;;;;;4932708;28;20413;-67
2021/07/31 11:28:51;;;;;;;;;;;;;;;;;;4933059;29;19927;-68
2021/07/31 11:31:18;;;;;;;;;;;;;;;;;;4932382;28;19933;-68
2021/07/31 11:33:45;;;;;;;;;;;;;;;;;;4932709;29;19933;-67
2021/07/31 11:36:13;;;;;;;;;;;;;;;;;;4932846;29;20017;-67
2021/07/31 11:38:40;;;;;;;;;;;;;;;;;;4932900;29;19934;-67
2021/07/31 11:41:07;;;;;;;;;;;;;;;;;;4932820;28;19934;-68
2021/07/31 11:43:34;;;;;;;;;;;;;;;;;;4932902;29;19933;-67
2021/07/31 11:46:01;;;;;;;;;;;;;;;;;;4946936;28;19927;-67
2021/07/31 11:48:28;;;;;;;;;;;;;;;;;;4932565;29;19927;-67
2021/07/31 11:50:54;;;;;;;;;;;;;;;;;;4930058;28;19935;-68
2021/07/31 11:53:21;;;;;;;;;;;;;;;;;;4932572;28;19927;-67
2021/07/31 11:55:49;;;;;;;;;;;;;;;;;;4923294;28;20025;-67
2021/07/31 11:58:16;;;;;;;;;;;;;;;;;;4929531;28;19949;-67
2021/07/31 12:00:43;;;;;;;;;;;;;;;;;;4930508;28;19927;-67
2021/07/31 12:03:10;;;;;;;;;;;;;;;;;;4932537;28;20457;-67
2021/07/31 12:05:37;;;;;;;;;;;;;;;;;;4954251;28;19936;-68
2021/07/31 12:08:04;;;;;;;;;;;;;;;;;;4930189;29;19933;-67
2021/07/31 12:10:31;;;;;;;;;;;;;;;;;;4931040;28;20017;-68
2021/07/31 12:12:58;;;;;;;;;;;;;;;;;;4931593;28;19981;-67
2021/07/31 12:15:26;;;;;;;;;;;;;;;;;;4932349;29;20018;-67
2021/07/31 12:17:53;;;;;;;;;;;;;;;;;;4965303;28;20344;-69
2021/07/31 12:20:20;;;;;;;;;;;;;;;;;;4933142;28;20013;-68
2021/07/31 12:22:47;;;;;;;;;;;;;;;;;;5026933;28;19932;-69
2021/07/31 12:25:14;;;;;;;;;;;;;;;;;;4937223;28;19938;-67
2021/07/31 12:27:41;;;;;;;;;;;;;;;;;;4932639;29;20368;-67
2021/07/31 12:30:08;;;;;;;;;;;;;;;;;;4961225;28;19935;-68
2021/07/31 12:32:35;;;;;;;;;;;;;;;;;;4932778;28;19926;-68
2021/07/31 12:35:02;;;;;;;;;;;;;;;;;;4935497;29;19927;-68
2021/07/31 12:37:29;;;;;;;;;;;;;;;;;;4937469;29;19933;-68
2021/07/31 12:39:56;;;;;;;;;;;;;;;;;;4934576;28;19927;-68
2021/07/31 12:42:23;;;;;;;;;;;;;;;;;;4935259;29;20387;-68
2021/07/31 12:44:50;;;;;;;;;;;;;;;;;;4933855;29;19927;-68
2021/07/31 12:47:17;;;;;;;;;;;;;;;;;;4952466;28;20016;-67
2021/07/31 12:49:45;;;;;;;;;;;;;;;;;;4941554;28;19934;-67
2021/07/31 12:52:12;;;;;;;;;;;;;;;;;;4953741;28;20029;-67
2021/07/31 12:54:39;;;;;;;;;;;;;;;;;;4946853;28;19933;-67
2021/07/31 12:57:06;;;;;;;;;;;;;;;;;;4957077;28;20398;-69
2021/07/31 12:59:33;;;;;;;;;;;;;;;;;;4931909;28;19980;-65
2021/07/31 13:02:00;;;;;;;;;;;;;;;;;;4931369;29;20533;-66
2021/07/31 13:04:27;;;;;;;;;;;;;;;;;;4956441;28;19930;-66
2021/07/31 13:06:55;;;;;;;;;;;;;;;;;;4931167;29;19933;-68
2021/07/31 13:09:22;;;;;;;;;;;;;;;;;;4930232;29;19934;-67
2021/07/31 13:11:49;;;;;;;;;;;;;;;;;;4931621;29;20405;-68
2021/07/31 13:14:16;;;;;;;;;;;;;;;;;;4928931;28;21152;-67
2021/07/31 13:16:43;;;;;;;;;;;;;;;;;;4928791;28;20022;-68
2021/07/31 13:19:10;;;;;;;;;;;;;;;;;;4957563;28;19967;-68
2021/07/31 13:21:37;;;;;;;;;;;;;;;;;;4951969;28;19931;-68
2021/07/31 13:24:04;;;;;;;;;;;;;;;;;;4931560;28;19933;-68
2021/07/31 13:26:31;;;;;;;;;;;;;;;;;;4931780;28;19927;-68
2021/07/31 13:28:58;;;;;;;;;;;;;;;;;;4932168;29;19934;-67
2021/07/31 13:31:25;;;;;;;;;;;;;;;;;;4931011;28;19927;-67
2021/07/31 13:33:52;;;;;;;;;;;;;;;;;;4966393;28;19924;-67
2021/07/31 13:36:19;;;;;;;;;;;;;;;;;;4931110;28;19926;-67
2021/07/31 13:38:49;;;;;;;;;;;;;;;;;;4931726;29;19927;-67
2021/07/31 13:41:16;;;;;;;;;;;;;;;;;;4930964;29;19927;-67
2021/07/31 13:43:43;;;;;;;;;;;;;;;;;;4931436;29;19933;-68
2021/07/31 13:46:10;;;;;;;;;;;;;;;;;;4930296;28;19931;-67
2021/07/31 13:48:37;;;;;;;;;;;;;;;;;;4931637;29;20310;-67
2021/07/31 13:51:04;;;;;;;;;;;;;;;;;;4931333;28;19934;-68
2021/07/31 13:53:32;;;;;;;;;;;;;;;;;;4932974;29;19935;-67
2021/07/31 13:55:59;;;;;;;;;;;;;;;;;;4931098;28;19927;-68
2021/07/31 13:58:26;;;;;;;;;;;;;;;;;;4930818;28;19934;-67
2021/07/31 14:00:53;;;;;;;;;;;;;;;;;;4931161;29;20341;-67
2021/07/31 14:03:20;;;;;;;;;;;;;;;;;;4931464;29;19931;-68
2021/07/31 14:05:47;;;;;;;;;;;;;;;;;;4931520;29;19930;-67
2021/07/31 14:08:14;;;;;;;;;;;;;;;;;;4931473;29;19927;-68
2021/07/31 14:10:41;;;;;;;;;;;;;;;;;;4961489;28;19927;-67
2021/07/31 14:13:08;;;;;;;;;;;;;;;;;;4935269;28;19927;-68
2021/07/31 14:15:35;;;;;;;;;;;;;;;;;;4932005;28;20069;-67
2021/07/31 14:18:02;;;;;;;;;;;;;;;;;;4928827;28;19933;-68
2021/07/31 14:20:29;;;;;;;;;;;;;;;;;;4933017;28;19957;-67
2021/07/31 14:22:56;;;;;;;;;;;;;;;;;;4932287;28;19949;-67
2021/07/31 14:25:27;;;;;;;;;;;;;;;;;;4934246;28;19938;-68
2021/07/31 14:27:54;;;;;;;;;;;;;;;;;;4940409;28;19925;-67
2021/07/31 14:30:21;;;;;;;;;;;;;;;;;;4930535;29;19946;-68
2021/07/31 14:32:50;;;;;;;;;;;;;;;;;;4934651;29;20375;-68
2021/07/31 14:35:17;;;;;;;;;;;;;;;;;;4934026;28;20407;-68
2021/07/31 14:37:43;;;;;;;;;;;;;;;;;;4933875;29;20387;-67
2021/07/31 14:40:10;;;;;;;;;;;;;;;;;;4956775;28;19925;-67
2021/07/31 14:42:37;;;;;;;;;;;;;;;;;;4956007;28;19931;-68
2021/07/31 14:45:04;;;;;;;;;;;;;;;;;;4933504;29;20459;-67
2021/07/31 14:47:31;;;;;;;;;;;;;;;;;;4933200;28;19970;-67
2021/07/31 14:49:58;;;;;;;;;;;;;;;;;;4933354;29;19934;-67
2021/07/31 14:52:25;;;;;;;;;;;;;;;;;;4933524;28;19937;-68
2021/07/31 14:54:52;;;;;;;;;;;;;;;;;;4937329;29;20394;-68
2021/07/31 14:57:19;;;;;;;;;;;;;;;;;;4933431;29;19938;-68
2021/07/31 14:59:46;;;;;;;;;;;;;;;;;;4933143;29;19934;-67
2021/07/31 15:02:13;;;;;;;;;;;;;;;;;;4933276;29;19937;-67
2021/07/31 15:04:40;;;;;;;;;;;;;;;;;;4933519;28;19930;-68
2021/07/31 15:07:07;;;;;;;;;;;;;;;;;;4933685;29;20326;-67
2021/07/31 15:09:34;;;;;;;;;;;;;;;;;;4933476;28;20287;-67
2021/07/31 15:12:01;;;;;;;;;;;;;;;;;;4933267;29;19927;-66
2021/07/31 15:14:28;;;;;;;;;;;;;;;;;;4934079;28;20361;-67
2021/07/31 15:16:55;;;;;;;;;;;;;;;;;;4965749;28;19925;-67
2021/07/31 15:19:23;;;;;;;;;;;;;;;;;;4932109;28;20014;-68
2021/07/31 15:21:50;;;;;;;;;;;;;;;;;;4957250;28;20450;-68
2021/07/31 15:24:17;;;;;;;;;;;;;;;;;;4931295;28;19935;-68
2021/07/31 15:26:44;;;;;;;;;;;;;;;;;;4931028;28;19934;-69
2021/07/31 15:29:11;;;;;;;;;;;;;;;;;;4924546;28;19927;-67
2021/07/31 15:31:38;;;;;;;;;;;;;;;;;;4927834;28;20382;-66
2021/07/31 15:34:05;;;;;;;;;;;;;;;;;;4929732;28;19927;-66
2021/07/31 15:36:32;;;;;;;;;;;;;;;;;;4929067;28;19927;-66
2021/07/31 15:38:59;;;;;;;;;;;;;;;;;;4932682;28;19934;-67
2021/07/31 15:41:26;;;;;;;;;;;;;;;;;;4954395;23;20041;-68
2021/07/31 15:43:53;;;;;;;;;;;;;;;;;;4944564;29;20349;-68
2021/07/31 15:46:20;;;;;;;;;;;;;;;;;;4946343;29;19930;-67
2021/07/31 15:48:47;;;;;;;;;;;;;;;;;;4944183;28;20004;-66
2021/07/31 15:51:14;;;;;;;;;;;;;;;;;;4948666;28;20312;-67
2021/07/31 15:53:43;;;;;;;;;;;;;;;;;;4946297;28;20020;-67
2021/07/31 15:56:10;;;;;;;;;;;;;;;;;;4947011;28;19931;-68
2021/07/31 15:58:37;;;;;;;;;;;;;;;;;;4948413;28;19931;-68
2021/07/31 16:01:04;;;;;;;;;;;;;;;;;;4947676;28;20433;-68
2021/07/31 16:03:31;;;;;;;;;;;;;;;;;;4945841;28;19941;-68
2021/07/31 16:05:58;;;;;;;;;;;;;;;;;;4945829;28;19937;-67
2021/07/31 16:08:25;;;;;;;;;;;;;;;;;;4947685;28;20405;-67
2021/07/31 16:10:52;;;;;;;;;;;;;;;;;;4947509;28;19931;-66
2021/07/31 16:13:19;;;;;;;;;;;;;;;;;;4943537;28;19934;-67
2021/07/31 16:15:45;;;;;;;;;;;;;;;;;;4946917;28;19926;-68
2021/07/31 16:18:12;;;;;;;;;;;;;;;;;;4944699;29;20388;-69
2021/07/31 16:20:40;;;;;;;;;;;;;;;;;;4948293;28;20330;-68
2021/07/31 16:23:07;;;;;;;;;;;;;;;;;;4943816;28;20009;-68
2021/07/31 16:25:34;;;;;;;;;;;;;;;;;;4947397;28;19935;-67
2021/07/31 16:28:01;;;;;;;;;;;;;;;;;;4948877;28;19933;-69
2021/07/31 16:30:28;;;;;;;;;;;;;;;;;;4946658;29;19927;-69
2021/07/31 16:32:55;;;;;;;;;;;;;;;;;;4946433;28;20004;-67
2021/07/31 16:35:22;;;;;;;;;;;;;;;;;;4943686;28;19932;-68
2021/07/31 16:37:49;;;;;;;;;;;;;;;;;;4948864;28;20383;-68
2021/07/31 16:40:16;;;;;;;;;;;;;;;;;;4945538;28;20021;-67
2021/07/31 16:42:43;;;;;;;;;;;;;;;;;;4946110;28;19970;-67